Time;durP1;ratioP1;P1;durP2;ratioP2;P2;SDS_P1;SDS_P2;PMS_P1;PMS_P2;Temp;Humidity;BMP_temperature;BMP_pressure;BME280_temperature;BME280_humidity;BME280_pressure;Samples;Min_cycle;Max_cycle;Signal;HPM_P1;HPM_P2
2023/08/02 00:01:48;;;;;;;;;;;;;;;22.69;47.96;100049.41;5020647;28;20466;-81
2023/08/02 00:04:14;;;;;;;;;;;;;;;22.69;48.09;100045.88;5023434;28;19917;-81
2023/08/02 00:06:39;;;;;;;;;;;;;;;22.68;48.05;100049.75;5021433;28;19921;-80
2023/08/02 00:09:04;;;;;;;;;;;;;;;22.66;48.00;100050.09;5026815;28;20327;-81
2023/08/02 00:11:30;;;;;;;;;;;;;;;22.64;48.11;100057.03;5020968;28;20023;-81
2023/08/02 00:13:55;;;;;;;;;;;;;;;22.61;48.13;100048.38;5025922;28;19953;-81
2023/08/02 00:16:20;;;;;;;;;;;;;;;22.60;48.03;100049.53;5026178;28;19960;-81
2023/08/02 00:18:46;;;;;;;;;;;;;;;22.58;48.12;100048.28;5025384;28;19979;-81
2023/08/02 00:21:11;;;;;;;;;;;;;;;22.58;48.21;100045.53;5021322;28;20300;-81
2023/08/02 00:23:36;;;;;;;;;;;;;;;22.59;48.14;100047.13;5018223;28;19925;-81
2023/08/02 00:26:01;;;;;;;;;;;;;;;22.58;48.27;100048.28;5023832;28;20410;-81
2023/08/02 00:28:27;;;;;;;;;;;;;;;22.59;48.11;100055.31;5020097;28;19925;-81
2023/08/02 00:30:52;;;;;;;;;;;;;;;22.60;48.20;100054.97;5018241;28;19953;-81
2023/08/02 00:33:17;;;;;;;;;;;;;;;22.61;48.16;100055.78;5018858;28;19928;-81
2023/08/02 00:35:46;;;;;;;;;;;;;;;22.61;48.07;100061.22;5027171;28;19917;-81
2023/08/02 00:38:11;;;;;;;;;;;;;;;22.59;47.97;100052.59;5026008;28;19926;-81
2023/08/02 00:40:37;;;;;;;;;;;;;;;22.55;48.22;100055.22;5027507;28;20012;-81
2023/08/02 00:43:02;;;;;;;;;;;;;;;22.51;48.28;100051.59;5029855;28;19929;-81
2023/08/02 00:45:29;;;;;;;;;;;;;;;22.51;48.23;100053.53;5023213;28;19921;-81
2023/08/02 00:47:54;;;;;;;;;;;;;;;22.47;48.36;100050.72;5020909;28;19917;-81
2023/08/02 00:50:20;;;;;;;;;;;;;;;22.49;48.35;100047.63;5023968;28;20519;-81
2023/08/02 00:52:46;;;;;;;;;;;;;;;22.47;48.44;100050.72;5022083;28;20021;-82
2023/08/02 00:55:11;;;;;;;;;;;;;;;22.52;48.34;100053.19;5023862;28;20016;-81
2023/08/02 00:57:37;;;;;;;;;;;;;;;22.52;48.38;100058.66;5019625;28;20693;-81
2023/08/02 01:00:02;;;;;;;;;;;;;;;22.53;48.44;100054.78;5023954;28;20335;-82
2023/08/02 01:02:28;;;;;;;;;;;;;;;22.55;48.35;100055.22;5025518;28;20384;-82
2023/08/02 01:04:53;;;;;;;;;;;;;;;22.53;48.39;100054.78;5022478;28;19974;-81
2023/08/02 01:07:32;;;;;;;;;;;;;;;22.55;48.35;100049.78;5027641;28;19956;-81
2023/08/02 01:10:00;;;;;;;;;;;;;;;22.56;48.23;100054.09;5026857;28;19951;-81
2023/08/02 01:12:28;;;;;;;;;;;;;;;22.56;48.16;100050.56;5023793;28;19925;-81
2023/08/02 01:14:55;;;;;;;;;;;;;;;22.47;48.57;100053.44;5021197;28;19932;-81
2023/08/02 01:17:24;;;;;;;;;;;;;;;22.46;48.33;100060.03;5020527;28;19945;-81
2023/08/02 01:19:49;;;;;;;;;;;;;;;22.44;48.58;100056.84;5007680;28;19917;-81
2023/08/02 01:22:14;;;;;;;;;;;;;;;22.41;48.39;100052.06;5008864;28;19917;-81
2023/08/02 01:24:39;;;;;;;;;;;;;;;22.41;48.62;100068.44;5023592;28;20083;-81
2023/08/02 01:27:09;;;;;;;;;;;;;;;22.39;48.75;100064.47;5022674;28;19928;-81
2023/08/02 01:29:37;;;;;;;;;;;;;;;22.43;48.68;100074.34;5030622;28;19930;-82
2023/08/02 01:32:03;;;;;;;;;;;;;;;22.46;48.59;100067.44;5019758;28;20377;-81
2023/08/02 01:34:29;;;;;;;;;;;;;;;22.46;48.69;100070.16;5006270;28;19921;-81
2023/08/02 01:36:55;;;;;;;;;;;;;;;22.39;48.69;100065.25;5030378;28;19917;-81
2023/08/02 01:39:20;;;;;;;;;;;;;;;22.39;48.86;100069.94;5024716;28;21647;-81
2023/08/02 01:41:45;;;;;;;;;;;;;;;22.39;48.81;100067.19;5018958;28;19976;-82
2023/08/02 01:44:11;;;;;;;;;;;;;;;22.38;48.70;100066.41;5023057;28;20486;-81
2023/08/02 01:46:36;;;;;;;;;;;;;;;22.39;48.67;100048.88;5022081;28;19949;-81
2023/08/02 01:49:01;;;;;;;;;;;;;;;22.40;48.74;100060.59;5021474;28;19925;-81
2023/08/02 01:51:27;;;;;;;;;;;;;;;22.38;48.78;100055.50;5021450;28;21228;-81
2023/08/02 01:53:52;;;;;;;;;;;;;;;22.36;48.67;100054.25;5022381;28;20195;-83
2023/08/02 01:56:17;;;;;;;;;;;;;;;22.30;48.77;100056.41;5019260;28;19925;-81
2023/08/02 01:58:43;;;;;;;;;;;;;;;22.26;48.93;100056.31;5021419;28;20351;-81
2023/08/02 02:01:08;;;;;;;;;;;;;;;22.27;48.91;100068.03;5009257;28;19921;-81
2023/08/02 02:03:33;;;;;;;;;;;;;;;22.23;48.97;100061.63;5020458;28;19936;-82
2023/08/02 02:05:59;;;;;;;;;;;;;;;22.22;48.97;100065.50;5024526;28;19917;-81
2023/08/02 02:08:24;;;;;;;;;;;;;;;22.18;48.95;100059.16;5022931;28;19921;-81
2023/08/02 02:10:50;;;;;;;;;;;;;;;22.14;49.13;100061.78;5009182;28;19917;-81
2023/08/02 02:13:17;;;;;;;;;;;;;;;22.10;49.08;100060.88;5022100;28;19975;-81
2023/08/02 02:15:42;;;;;;;;;;;;;;;22.09;49.09;100063.94;5006536;28;20296;-83
2023/08/02 02:18:07;;;;;;;;;;;;;;;22.06;49.06;100068.13;5001819;28;19928;-81
2023/08/02 02:20:32;;;;;;;;;;;;;;;22.03;49.19;100064.13;5025838;28;19921;-81
2023/08/02 02:22:58;;;;;;;;;;;;;;;22.03;49.22;100068.78;5025093;28;20007;-81
2023/08/02 02:25:23;;;;;;;;;;;;;;;21.97;49.28;100068.22;5028457;28;19932;-81
2023/08/02 02:27:48;;;;;;;;;;;;;;;21.98;49.18;100077.19;5021458;28;19924;-81
2023/08/02 02:30:14;;;;;;;;;;;;;;;21.96;49.29;100074.81;5026802;28;19925;-81
2023/08/02 02:32:39;;;;;;;;;;;;;;;21.96;49.39;100069.38;5024878;28;20007;-81
2023/08/02 02:35:05;;;;;;;;;;;;;;;21.98;49.31;100072.53;5022829;28;19932;-82
2023/08/02 02:37:30;;;;;;;;;;;;;;;21.97;49.29;100062.78;5018554;28;19924;-81
2023/08/02 02:39:55;;;;;;;;;;;;;;;21.99;49.25;100068.69;5024468;28;19917;-80
2023/08/02 02:42:20;;;;;;;;;;;;;;;21.99;49.31;100062.44;5007940;28;19925;-81
2023/08/02 02:44:46;;;;;;;;;;;;;;;22.00;49.46;100067.53;5020596;28;19925;-80
2023/08/02 02:47:11;;;;;;;;;;;;;;;22.01;49.19;100068.34;5020726;28;19925;-81
2023/08/02 02:49:37;;;;;;;;;;;;;;;22.00;49.24;100070.25;5024098;28;19988;-81
2023/08/02 02:52:02;;;;;;;;;;;;;;;21.99;49.61;100065.94;5023393;28;20403;-81
2023/08/02 02:54:28;;;;;;;;;;;;;;;22.01;49.65;100068.34;5016603;28;20081;-80
2023/08/02 02:56:53;;;;;;;;;;;;;;;22.06;49.44;100068.13;5004120;28;19995;-81
2023/08/02 02:59:18;;;;;;;;;;;;;;;22.08;49.49;100071.31;5019590;28;20007;-81
2023/08/02 03:01:43;;;;;;;;;;;;;;;22.09;49.37;100066.69;5024031;28;20451;-82
2023/08/02 03:04:09;;;;;;;;;;;;;;;22.10;49.23;100062.81;5022362;28;19932;-81
2023/08/02 03:06:34;;;;;;;;;;;;;;;22.12;49.37;100057.81;5021998;28;19976;-82
2023/08/02 03:08:59;;;;;;;;;;;;;;;22.13;49.30;100062.13;5021554;28;19913;-81
2023/08/02 03:11:25;;;;;;;;;;;;;;;22.17;49.32;100057.56;5020361;28;20286;-82
2023/08/02 03:13:50;;;;;;;;;;;;;;;22.22;49.25;100060.06;5010595;28;19913;-82
2023/08/02 03:16:15;;;;;;;;;;;;;;;22.25;49.22;100059.38;5022775;28;19921;-82
2023/08/02 03:18:40;;;;;;;;;;;;;;;22.32;49.01;100067.78;5020559;28;20723;-82
2023/08/02 03:21:06;;;;;;;;;;;;;;;22.36;49.08;100065.16;5009633;28;20436;-81
2023/08/02 03:23:33;;;;;;;;;;;;;;;22.39;48.93;100072.66;5019972;28;20401;-82
2023/08/02 03:25:59;;;;;;;;;;;;;;;22.42;48.88;100063.78;5025121;28;19971;-81
2023/08/02 03:28:24;;;;;;;;;;;;;;;22.41;48.84;100073.91;5023185;28;19921;-82
2023/08/02 03:30:49;;;;;;;;;;;;;;;22.44;48.85;100073.25;5005033;28;19921;-81
2023/08/02 03:33:14;;;;;;;;;;;;;;;22.47;48.79;100072.53;5027507;28;19928;-81
2023/08/02 03:35:40;;;;;;;;;;;;;;;22.51;48.66;100073.44;5008280;28;19917;-81
2023/08/02 03:38:05;;;;;;;;;;;;;;;22.44;48.79;100077.88;5004905;28;19925;-82
2023/08/02 03:40:30;;;;;;;;;;;;;;;22.43;48.81;100066.16;5023509;28;19924;-81
2023/08/02 03:42:56;;;;;;;;;;;;;;;22.44;48.70;100066.97;5023623;28;19921;-82
2023/08/02 03:45:21;;;;;;;;;;;;;;;22.47;48.75;100071.75;5020434;28;19934;-81
2023/08/02 03:47:46;;;;;;;;;;;;;;;22.44;48.64;100069.69;5018058;28;19921;-82
2023/08/02 03:50:12;;;;;;;;;;;;;;;22.40;48.69;100072.31;5026720;28;19944;-82
2023/08/02 03:52:37;;;;;;;;;;;;;;;22.42;48.58;100063.78;5018233;28;19964;-82
2023/08/02 03:55:02;;;;;;;;;;;;;;;22.43;48.57;100070.81;5018735;28;19917;-82
2023/08/02 03:57:28;;;;;;;;;;;;;;;22.39;48.48;100070.72;5025421;28;19970;-82
2023/08/02 03:59:53;;;;;;;;;;;;;;;;;;5024496;28;19921;-82
2023/08/02 04:02:18;;;;;;;;;;;;;;;22.31;48.70;100068.94;5023437;28;19917;-82
2023/08/02 04:04:44;;;;;;;;;;;;;;;22.32;48.63;100073.25;5018242;28;19925;-82
2023/08/02 04:07:09;;;;;;;;;;;;;;;22.33;48.57;100072.09;5021612;28;20011;-82
2023/08/02 04:09:35;;;;;;;;;;;;;;;22.35;48.62;100075.28;5019997;28;20319;-82
2023/08/02 04:12:00;;;;;;;;;;;;;;;22.36;48.44;100076.06;5026305;28;19928;-83
2023/08/02 04:14:25;;;;;;;;;;;;;;;22.36;48.42;100076.88;5012089;28;20455;-81
2023/08/02 04:16:51;;;;;;;;;;;;;;;22.33;48.39;100074.84;5022062;28;19928;-82
2023/08/02 04:19:16;;;;;;;;;;;;;;;22.33;48.43;100071.31;5023071;28;19922;-82
2023/08/02 04:21:41;;;;;;;;;;;;;;;22.33;48.49;100066.66;5024879;28;19921;-82
2023/08/02 04:24:07;;;;;;;;;;;;;;;22.37;48.48;100078.47;5024041;28;20066;-81
2023/08/02 04:26:32;;;;;;;;;;;;;;;22.42;48.33;100078.22;5011129;28;19917;-82
2023/08/02 04:28:57;;;;;;;;;;;;;;;22.40;48.21;100083.22;5028556;28;19940;-81
2023/08/02 04:31:22;;;;;;;;;;;;;;;22.39;48.27;100078.91;5023590;28;20048;-81
2023/08/02 04:33:48;;;;;;;;;;;;;;;22.43;48.10;100085.25;5023133;28;20007;-81
2023/08/02 04:36:13;;;;;;;;;;;;;;;22.44;48.23;100088.78;5028058;28;19922;-81
2023/08/02 04:38:38;;;;;;;;;;;;;;;22.46;48.34;100090.06;5025490;28;19920;-81
2023/08/02 04:41:04;;;;;;;;;;;;;;;22.53;48.12;100089.47;5027299;28;20410;-82
2023/08/02 04:43:29;;;;;;;;;;;;;;;22.61;47.90;100099.47;5006305;28;20284;-82
2023/08/02 04:45:54;;;;;;;;;;;;;;;22.64;47.88;100106.19;5027766;28;19917;-82
2023/08/02 04:48:20;;;;;;;;;;;;;;;22.66;48.01;100095.72;5024720;28;19971;-82
2023/08/02 04:50:45;;;;;;;;;;;;;;;22.68;47.94;100090.69;5008158;28;19917;-82
2023/08/02 04:53:10;;;;;;;;;;;;;;;22.76;47.95;100089.75;5026725;28;19927;-82
2023/08/02 04:55:43;;;;;;;;;;;;;;;22.83;47.75;100087.28;5022086;28;19944;-82
2023/08/02 04:58:08;;;;;;;;;;;;;;;22.88;47.78;100087.81;5020535;28;19937;-83
2023/08/02 05:00:33;;;;;;;;;;;;;;;22.97;47.34;100090.41;5005634;28;19932;-83
2023/08/02 05:02:59;;;;;;;;;;;;;;;23.01;47.48;100085.06;5022152;28;19921;-82
2023/08/02 05:05:24;;;;;;;;;;;;;;;23.02;47.41;100090.19;5016821;28;19924;-82
2023/08/02 05:07:49;;;;;;;;;;;;;;;23.05;47.45;100086.75;5022335;28;19994;-83
2023/08/02 05:10:15;;;;;;;;;;;;;;;23.12;47.13;100086.13;5020848;28;19917;-82
2023/08/02 05:12:40;;;;;;;;;;;;;;;23.15;47.32;100088.97;5018916;28;20408;-81
2023/08/02 05:15:06;;;;;;;;;;;;;;;23.25;47.05;100078.69;5018864;28;20433;-81
2023/08/02 05:17:31;;;;;;;;;;;;;;;23.30;46.92;100075.69;5022045;28;20371;-83
2023/08/02 05:19:57;;;;;;;;;;;;;;;23.37;46.78;100075.91;5018989;28;19917;-81
2023/08/02 05:22:22;;;;;;;;;;;;;;;23.42;46.55;100076.44;5023070;28;19964;-82
2023/08/02 05:24:51;;;;;;;;;;;;;;;23.51;46.50;100082.50;5027966;28;19917;-81
2023/08/02 05:27:16;;;;;;;;;;;;;;;23.51;46.44;100087.19;5017650;28;19925;-82
2023/08/02 05:29:42;;;;;;;;;;;;;;;23.60;46.38;100085.13;5019502;28;19921;-82
2023/08/02 05:32:07;;;;;;;;;;;;;;;23.64;46.07;100094.22;5020189;28;19928;-82
2023/08/02 05:34:32;;;;;;;;;;;;;;;23.73;46.04;100097.59;5020134;28;20392;-82
2023/08/02 05:36:58;;;;;;;;;;;;;;;23.85;45.69;100087.69;5020942;28;19920;-83
2023/08/02 05:39:23;;;;;;;;;;;;;;;23.84;45.66;100095.09;4949155;28;2102518;-82
2023/08/02 05:41:49;;;;;;;;;;;;;;;23.78;45.49;100094.59;5024616;28;19917;-82
2023/08/02 05:44:14;;;;;;;;;;;;;;;23.80;45.33;100089.53;5022778;28;19952;-83
2023/08/02 05:46:39;;;;;;;;;;;;;;;23.84;45.58;100102.53;5027273;28;20391;-81
2023/08/02 05:49:05;;;;;;;;;;;;;;;23.94;45.49;100104.75;5023871;28;19948;-80
2023/08/02 05:51:30;;;;;;;;;;;;;;;24.06;45.03;100096.44;5024520;28;19928;-82
2023/08/02 05:53:55;;;;;;;;;;;;;;;24.06;45.11;100090.97;5008745;28;19921;-82
2023/08/02 05:56:21;;;;;;;;;;;;;;;24.05;45.06;100092.09;5020944;28;19945;-82
2023/08/02 05:58:46;;;;;;;;;;;;;;;24.11;45.06;100090.69;5020599;28;19963;-82
2023/08/02 06:01:11;;;;;;;;;;;;;;;24.13;44.86;100093.88;5019505;28;19932;-83
2023/08/02 06:03:36;;;;;;;;;;;;;;;24.15;44.97;100093.50;5020986;28;19918;-82
2023/08/02 06:06:02;;;;;;;;;;;;;;;24.26;45.07;100089.88;5018603;28;20335;-82
2023/08/02 06:08:27;;;;;;;;;;;;;;;24.40;44.56;100090.22;5024433;28;19956;-82
2023/08/02 06:10:53;;;;;;;;;;;;;;;24.44;44.41;100095.00;5005559;28;19917;-82
2023/08/02 06:13:19;;;;;;;;;;;;;;;24.46;44.18;100092.69;5026434;28;20011;-81
2023/08/02 06:15:44;;;;;;;;;;;;;;;24.53;44.02;100092.84;5008866;28;19940;-81
2023/08/02 06:18:09;;;;;;;;;;;;;;;24.51;44.19;100086.94;5024655;28;19921;-81
2023/08/02 06:20:35;;;;;;;;;;;;;;;24.61;44.11;100091.88;5017281;28;20388;-82
2023/08/02 06:23:00;;;;;;;;;;;;;;;24.68;44.00;100098.28;5022990;28;19927;-83
2023/08/02 06:25:26;;;;;;;;;;;;;;;24.77;44.02;100089.84;5024998;28;19921;-83
2023/08/02 06:27:52;;;;;;;;;;;;;;;24.85;43.83;100088.84;5024921;28;19921;-82
2023/08/02 06:30:17;;;;;;;;;;;;;;;24.87;43.83;100100.25;5005862;28;20704;-82
2023/08/02 06:32:42;;;;;;;;;;;;;;;24.85;43.88;100099.81;5023702;28;19957;-82
2023/08/02 06:35:08;;;;;;;;;;;;;;;24.91;43.49;100109.31;5002187;28;19921;-82
2023/08/02 06:37:33;;;;;;;;;;;;;;;24.90;43.36;100106.94;5023007;28;20012;-82
2023/08/02 06:39:58;;;;;;;;;;;;;;;24.96;43.20;100100.84;5020465;28;19932;-82
2023/08/02 06:42:24;;;;;;;;;;;;;;;24.88;43.03;100099.09;5020583;28;19947;-82
2023/08/02 06:44:49;;;;;;;;;;;;;;;24.83;43.14;100104.88;5016921;28;19925;-83
2023/08/02 06:47:14;;;;;;;;;;;;;;;24.81;43.07;100104.44;5020786;28;19967;-82
2023/08/02 06:49:39;;;;;;;;;;;;;;;24.83;43.15;100099.38;5001254;28;19952;-83
2023/08/02 06:52:05;;;;;;;;;;;;;;;24.89;43.17;100089.72;5018523;28;20543;-83
2023/08/02 06:54:31;;;;;;;;;;;;;;;24.94;43.10;100089.41;5018212;28;19947;-82
2023/08/02 06:56:56;;;;;;;;;;;;;;;25.06;42.96;100091.25;5019606;28;20071;-82
2023/08/02 06:59:21;;;;;;;;;;;;;;;25.15;43.09;100086.38;5019046;28;19929;-82
2023/08/02 07:01:47;;;;;;;;;;;;;;;25.28;42.93;100090.50;5020461;28;19923;-82
2023/08/02 07:04:12;;;;;;;;;;;;;;;25.42;42.74;100087.25;5019728;28;19921;-80
2023/08/02 07:06:37;;;;;;;;;;;;;;;25.46;42.44;100082.63;5018880;28;19926;-83
2023/08/02 07:09:03;;;;;;;;;;;;;;;25.53;42.74;100074.53;5018213;28;19924;-82
2023/08/02 07:11:28;;;;;;;;;;;;;;;25.72;42.69;100070.19;5016916;28;19920;-82
2023/08/02 07:13:53;;;;;;;;;;;;;;;25.94;42.63;100072.13;5016720;28;19929;-82
2023/08/02 07:16:19;;;;;;;;;;;;;;;26.13;41.64;100076.72;5017159;28;19921;-83
2023/08/02 07:18:44;;;;;;;;;;;;;;;26.17;41.54;100080.31;5023139;28;19924;-82
2023/08/02 07:21:09;;;;;;;;;;;;;;;26.22;41.88;100077.25;5018200;28;19918;-82
2023/08/02 07:23:35;;;;;;;;;;;;;;;26.32;41.86;100075.81;5017417;28;19932;-82
2023/08/02 07:26:01;;;;;;;;;;;;;;;26.44;41.20;100070.16;5018386;28;19952;-80
2023/08/02 07:28:26;;;;;;;;;;;;;;;26.41;41.35;100068.16;5019244;28;19926;-81
2023/08/02 07:30:52;;;;;;;;;;;;;;;26.42;41.47;100076.00;5023019;28;20447;-81
2023/08/02 07:33:17;;;;;;;;;;;;;;;26.50;41.18;100072.19;5025590;28;19925;-82
2023/08/02 07:35:42;;;;;;;;;;;;;;;26.53;41.02;100067.91;5025300;28;20020;-82
2023/08/02 07:38:08;;;;;;;;;;;;;;;26.64;41.00;100062.56;5002951;28;19932;-82
2023/08/02 07:40:33;;;;;;;;;;;;;;;26.77;40.84;100067.47;5021773;28;20013;-82
2023/08/02 07:42:58;;;;;;;;;;;;;;;26.88;40.21;100056.56;5021720;28;20019;-81
2023/08/02 07:45:24;;;;;;;;;;;;;;;26.82;39.75;100054.53;5021305;28;19925;-81
2023/08/02 07:47:49;;;;;;;;;;;;;;;26.72;40.04;100050.47;5018947;28;19931;-81
2023/08/02 07:50:14;;;;;;;;;;;;;;;26.63;40.35;100050.78;5024165;28;20191;-82
2023/08/02 07:52:40;;;;;;;;;;;;;;;26.66;40.19;100050.03;5017441;28;19921;-82
2023/08/02 07:55:05;;;;;;;;;;;;;;;26.57;39.85;100044.03;5019483;28;20582;-82
2023/08/02 07:57:32;;;;;;;;;;;;;;;26.59;39.45;100041.72;5028343;28;20526;-81
2023/08/02 07:59:57;;;;;;;;;;;;;;;26.60;39.55;100048.00;5020166;28;19971;-81
2023/08/02 08:02:25;;;;;;;;;;;;;;;26.58;39.80;100040.13;5018760;28;19925;-82
2023/08/02 08:04:50;;;;;;;;;;;;;;;26.66;39.92;100041.78;5020049;28;19925;-80
2023/08/02 08:07:15;;;;;;;;;;;;;;;26.76;39.72;100041.13;5017999;28;20447;-81
2023/08/02 08:09:41;;;;;;;;;;;;;;;26.79;39.78;100040.38;5015590;28;19984;-82
2023/08/02 08:12:06;;;;;;;;;;;;;;;26.86;39.96;100023.19;5004411;28;20454;-82
2023/08/02 08:14:32;;;;;;;;;;;;;;;27.04;39.76;100039.91;5017166;28;19979;-82
2023/08/02 08:16:58;;;;;;;;;;;;;;;27.12;38.99;100035.28;5022447;28;19979;-82
2023/08/02 08:19:24;;;;;;;;;;;;;;;27.24;39.10;100040.50;5020517;28;19932;-82
2023/08/02 08:21:50;;;;;;;;;;;;;;;27.29;39.45;100035.47;5014701;28;20364;-82
2023/08/02 08:24:15;;;;;;;;;;;;;;;27.45;39.23;100045.41;5020726;28;19921;-83
2023/08/02 08:26:40;;;;;;;;;;;;;;;27.51;38.98;100030.94;5019451;28;19928;-82
2023/08/02 08:29:05;;;;;;;;;;;;;;;27.60;38.69;100027.88;5007035;28;20320;-82
2023/08/02 08:31:32;;;;;;;;;;;;;;;27.73;38.43;100031.16;5019599;28;19917;-82
2023/08/02 08:33:57;;;;;;;;;;;;;;;27.80;38.62;100042.22;5021275;28;19920;-85
2023/08/02 08:36:23;;;;;;;;;;;;;;;27.83;38.59;100036.75;5019206;28;21743;-83
2023/08/02 08:38:48;;;;;;;;;;;;;;;27.97;38.83;100031.34;5023777;28;19920;-83
2023/08/02 08:41:14;;;;;;;;;;;;;;;27.92;37.37;100030.91;5019009;28;19970;-83
2023/08/02 08:43:41;;;;;;;;;;;;;;;27.98;38.16;100046.69;5019675;28;20008;-80
2023/08/02 08:46:06;;;;;;;;;;;;;;;27.92;36.72;100039.97;5021088;28;19921;-81
2023/08/02 08:48:33;;;;;;;;;;;;;;;27.89;37.66;100028.94;5020868;28;19975;-82
2023/08/02 08:50:59;;;;;;;;;;;;;;;27.92;37.88;100030.91;5020914;28;20012;-81
2023/08/02 08:53:43;;;;;;;;;;;;;;;28.03;37.31;100031.00;5018241;28;20012;-81
2023/08/02 08:56:10;;;;;;;;;;;;;;;28.04;37.82;100032.56;5023955;28;19933;-80
2023/08/02 08:58:35;;;;;;;;;;;;;;;27.99;37.52;100022.69;5011231;28;19933;-80
2023/08/02 09:01:03;;;;;;;;;;;;;;;28.03;37.79;100025.50;5027770;28;19921;-81
2023/08/02 09:03:29;;;;;;;;;;;;;;;28.12;37.25;100025.94;5027176;28;19925;-84
2023/08/02 09:05:58;;;;;;;;;;;;;;;28.17;36.86;100022.81;5029165;28;19970;-82
2023/08/02 09:08:23;;;;;;;;;;;;;;;28.11;36.84;100029.84;5028007;28;20110;-80
2023/08/02 09:10:48;;;;;;;;;;;;;;;28.12;36.95;100023.16;5029620;28;20690;-81
2023/08/02 09:13:23;;;;;;;;;;;;;;;28.22;36.77;100014.19;5030096;28;19935;-81
2023/08/02 09:16:05;;;;;;;;;;;;;;;28.18;36.47;100021.63;5027159;28;19925;-82
2023/08/02 09:18:46;;;;;;;;;;;;;;;28.22;36.71;100006.72;5028392;28;19927;-82
2023/08/02 09:21:14;;;;;;;;;;;;;;;28.33;36.58;100006.78;5011104;28;19971;-82
2023/08/02 09:23:39;;;;;;;;;;;;;;;28.32;35.99;100013.47;5026312;28;19936;-81
2023/08/02 09:26:14;;;;;;;;;;;;;;;28.24;36.22;99996.09;5027434;28;19921;-82
2023/08/02 09:28:39;;;;;;;;;;;;;;;28.27;36.40;99994.56;5027352;28;19925;-81
2023/08/02 09:31:14;;;;;;;;;;;;;;;28.28;35.54;100001.66;5030859;28;19943;-82
2023/08/02 09:33:49;;;;;;;;;;;;;;;28.12;35.19;99996.41;5024461;28;19925;-82
2023/08/02 09:36:21;;;;;;;;;;;;;;;28.09;35.66;99993.66;5023603;28;19948;-80
2023/08/02 09:39:16;;;;;;;;;;;;;;;28.06;35.62;99977.91;5020925;28;19936;-84
2023/08/02 09:41:42;;;;;;;;;;;;;;;28.20;35.17;99980.75;5022432;28;20281;-80
2023/08/02 09:44:08;;;;;;;;;;;;;;;28.20;34.72;99976.03;5025228;28;19917;-81
2023/08/02 09:46:34;;;;;;;;;;;;;;;28.19;34.73;99963.44;5027522;28;19988;-83
2023/08/02 09:49:20;;;;;;;;;;;;;;;28.18;35.04;99969.31;5028829;28;19917;-80
2023/08/02 09:51:46;;;;;;;;;;;;;;;28.12;35.07;99959.84;5023375;28;19917;-80
2023/08/02 09:54:12;;;;;;;;;;;;;;;28.29;35.23;99956.41;5023836;28;19929;-80
2023/08/02 09:56:39;;;;;;;;;;;;;;;28.48;34.19;99958.84;5023217;28;20472;-82
2023/08/02 09:59:05;;;;;;;;;;;;;;;28.52;34.00;99942.31;5027169;28;19918;-80
2023/08/02 10:01:31;;;;;;;;;;;;;;;28.62;34.22;99955.34;5008975;28;19947;-79
2023/08/02 10:03:58;;;;;;;;;;;;;;;28.72;34.26;99956.56;5023151;28;19929;-79
2023/08/02 10:06:38;;;;;;;;;;;;;;;28.78;34.25;99966.81;5026968;28;19927;-83
2023/08/02 10:09:07;;;;;;;;;;;;;;;28.78;34.01;99952.25;5025342;28;19921;-81
2023/08/02 10:11:41;;;;;;;;;;;;;;;28.80;33.79;99950.69;5026596;28;20435;-81
2023/08/02 10:14:07;;;;;;;;;;;;;;;28.74;33.76;99954.22;5023561;28;20408;-82
2023/08/02 10:16:32;;;;;;;;;;;;;;;28.84;33.94;99962.50;5023070;28;19929;-82
2023/08/02 10:18:58;;;;;;;;;;;;;;;28.98;33.35;99953.50;5021260;28;19921;-82
2023/08/02 10:21:24;;;;;;;;;;;;;;;29.03;33.53;99958.63;5005132;28;20549;-83
2023/08/02 10:23:49;;;;;;;;;;;;;;;29.01;33.91;99952.72;5003447;28;20376;-82
2023/08/02 10:26:15;;;;;;;;;;;;;;;29.01;33.78;99955.47;5019083;28;20075;-81
2023/08/02 10:28:41;;;;;;;;;;;;;;;28.97;33.41;99953.91;5019437;28;20304;-81
2023/08/02 10:31:08;;;;;;;;;;;;;;;28.99;33.50;99952.31;5017316;28;19969;-81
2023/08/02 10:33:33;;;;;;;;;;;;;;;29.07;34.01;99942.88;5018507;28;19927;-81
2023/08/02 10:36:02;;;;;;;;;;;;;;;29.22;33.72;99932.63;5020895;28;19921;-81
2023/08/02 10:38:46;;;;;;;;;;;;;;;29.41;33.59;99936.97;5023801;28;19970;-82
2023/08/02 10:41:12;;;;;;;;;;;;;;;29.50;33.58;99934.63;5003004;28;19959;-82
2023/08/02 10:43:53;;;;;;;;;;;;;;;29.79;33.42;99918.81;5025287;28;20399;-81
2023/08/02 10:46:20;;;;;;;;;;;;;;;29.99;32.82;99914.44;5021022;28;19949;-82
2023/08/02 10:48:45;;;;;;;;;;;;;;;30.03;32.24;99911.66;5020200;28;19932;-82
2023/08/02 10:51:32;;;;;;;;;;;;;;;29.98;32.64;99918.38;5023579;28;20300;-82
2023/08/02 10:54:19;;;;;;;;;;;;;;;30.05;33.34;99932.19;5022107;28;20432;-81
2023/08/02 10:56:54;;;;;;;;;;;;;;;30.19;32.40;99920.31;5023019;28;19917;-82
2023/08/02 10:59:22;;;;;;;;;;;;;;;30.22;31.80;99924.25;5024880;28;20408;-81
2023/08/02 11:01:57;;;;;;;;;;;;;;;30.27;32.17;99916.31;5024062;28;19928;-82
2023/08/02 11:04:23;;;;;;;;;;;;;;;30.51;31.62;99924.88;5023762;28;19921;-82
2023/08/02 11:06:48;;;;;;;;;;;;;;;30.58;31.56;99911.81;5019629;28;20032;-81
2023/08/02 11:09:13;;;;;;;;;;;;;;;30.68;31.31;99915.72;5003422;28;20296;-82
2023/08/02 11:11:38;;;;;;;;;;;;;;;30.83;31.59;99908.91;5023950;28;20395;-82
2023/08/02 11:14:04;;;;;;;;;;;;;;;30.98;31.21;99904.06;5023053;28;19921;-83
2023/08/02 11:16:30;;;;;;;;;;;;;;;31.03;31.13;99906.41;5024769;28;20056;-83
2023/08/02 11:18:55;;;;;;;;;;;;;;;30.87;30.26;99900.59;5020940;28;20000;-82
2023/08/02 11:21:20;;;;;;;;;;;;;;;30.71;30.63;99898.34;5007616;28;19963;-82
2023/08/02 11:23:49;;;;;;;;;;;;;;;30.67;31.01;99881.75;5021117;28;20511;-82
2023/08/02 11:26:15;;;;;;;;;;;;;;;30.76;30.25;99888.84;5022088;28;19921;-80
2023/08/02 11:28:52;;;;;;;;;;;;;;;30.84;31.10;99884.81;5017651;28;19928;-81
2023/08/02 11:31:17;;;;;;;;;;;;;;;30.81;31.02;99891.94;5023460;28;20505;-80
2023/08/02 11:33:43;;;;;;;;;;;;;;;30.78;30.74;99881.69;5026336;28;20011;-81
2023/08/02 11:36:08;;;;;;;;;;;;;;;30.86;30.65;99888.75;5025030;28;19920;-80
2023/08/02 11:38:35;;;;;;;;;;;;;;;30.99;30.48;99861.38;5019703;28;20458;-81
2023/08/02 11:41:00;;;;;;;;;;;;;;;31.15;30.58;99864.41;5027599;28;20407;-82
2023/08/02 11:43:33;;;;;;;;;;;;;;;31.38;31.15;99874.91;5020021;28;19925;-82
2023/08/02 11:45:58;;;;;;;;;;;;;;;31.60;29.63;99869.94;5006366;28;19925;-83
2023/08/02 11:48:25;;;;;;;;;;;;;;;31.59;29.23;99873.88;5026158;28;20696;-82
2023/08/02 11:50:50;;;;;;;;;;;;;;;31.45;29.24;99861.00;5023560;28;19925;-82
2023/08/02 11:53:16;;;;;;;;;;;;;;;31.40;29.23;99857.88;5024191;28;19925;-81
2023/08/02 11:55:41;;;;;;;;;;;;;;;31.27;29.46;99849.31;5018640;28;20472;-80
2023/08/02 11:58:07;;;;;;;;;;;;;;;31.30;29.30;99834.66;5005633;28;20394;-83
2023/08/02 12:00:33;;;;;;;;;;;;;;;31.32;29.40;99837.81;5019861;28;19925;-81
2023/08/02 12:03:12;;;;;;;;;;;;;;;31.30;29.08;99839.41;5020162;28;20431;-80
2023/08/02 12:05:37;;;;;;;;;;;;;;;31.17;29.17;99845.44;5027300;28;19948;-81
2023/08/02 12:08:17;;;;;;;;;;;;;;;31.04;29.40;99844.34;5021149;28;20389;-81
2023/08/02 12:10:43;;;;;;;;;;;;;;;31.01;29.66;99827.78;5021175;28;19956;-82
2023/08/02 12:13:08;;;;;;;;;;;;;;;31.03;29.32;99833.69;5022000;28;19922;-82
2023/08/02 12:15:35;;;;;;;;;;;;;;;31.08;29.29;99817.44;5025797;28;19974;-82
2023/08/02 12:18:02;;;;;;;;;;;;;;;31.07;29.59;99828.94;5020211;28;19952;-83
2023/08/02 12:20:34;;;;;;;;;;;;;;;31.08;29.80;99827.72;5024068;28;20721;-82
2023/08/02 12:22:59;;;;;;;;;;;;;;;31.03;30.07;99819.84;5017710;28;19943;-81
2023/08/02 12:25:25;;;;;;;;;;;;;;;31.14;30.00;99809.50;5018822;28;20400;-82
2023/08/02 12:28:16;;;;;;;;;;;;;;;31.18;29.68;99804.72;5022489;28;19993;-82
2023/08/02 12:30:59;;;;;;;;;;;;;;;31.21;29.57;99801.13;5020159;28;19928;-83
2023/08/02 12:33:24;;;;;;;;;;;;;;;31.23;29.71;99807.03;5006145;28;20401;-81
2023/08/02 12:35:49;;;;;;;;;;;;;;;31.18;29.21;99802.75;5028218;28;19921;-81
2023/08/02 12:38:15;;;;;;;;;;;;;;;31.17;29.59;99820.53;5027368;28;19948;-80